sensor_id;sensor_type;location;lat;lon;timestamp;P1;durP1;ratioP1;P2;durP2;ratioP2
14272;SDS011;7220;49.450;11.052;2023-05-15T00:03:49;6.80;;;6.07;;
14272;SDS011;7220;49.450;11.052;2023-05-15T00:07:50;6.68;;;6.07;;
14272;SDS011;7220;49.450;11.052;2023-05-15T00:11:51;7.37;;;6.67;;
14272;SDS011;7220;49.450;11.052;2023-05-15T00:15:51;7.53;;;6.55;;
14272;SDS011;7220;49.450;11.052;2023-05-15T00:19:52;7.13;;;6.43;;
14272;SDS011;7220;49.450;11.052;2023-05-15T00:23:56;7.43;;;6.35;;
14272;SDS011;7220;49.450;11.052;2023-05-15T00:27:57;6.78;;;6.18;;
14272;SDS011;7220;49.450;11.052;2023-05-15T00:31:57;8.70;;;7.17;;
14272;SDS011;7220;49.450;11.052;2023-05-15T00:35:57;8.55;;;7.75;;
14272;SDS011;7220;49.450;11.052;2023-05-15T00:39:58;8.13;;;7.32;;
14272;SDS011;7220;49.450;11.052;2023-05-15T00:43:58;9.77;;;7.97;;
14272;SDS011;7220;49.450;11.052;2023-05-15T00:48:00;9.32;;;8.43;;
14272;SDS011;7220;49.450;11.052;2023-05-15T00:52:00;9.45;;;8.45;;
14272;SDS011;7220;49.450;11.052;2023-05-15T00:56:02;8.65;;;7.85;;
14272;SDS011;7220;49.450;11.052;2023-05-15T01:00:05;9.18;;;8.10;;
14272;SDS011;7220;49.450;11.052;2023-05-15T01:04:09;8.18;;;7.38;;
14272;SDS011;7220;49.450;11.052;2023-05-15T01:12:22;7.75;;;6.95;;
14272;SDS011;7220;49.450;11.052;2023-05-15T01:16:25;7.68;;;6.97;;
14272;SDS011;7220;49.450;11.052;2023-05-15T01:20:26;8.20;;;6.70;;
14272;SDS011;7220;49.450;11.052;2023-05-15T01:29:00;7.15;;;6.45;;
14272;SDS011;7220;49.450;11.052;2023-05-15T01:37:21;7.25;;;6.55;;
14272;SDS011;7220;49.450;11.052;2023-05-15T01:45:34;8.15;;;7.35;;
14272;SDS011;7220;49.450;11.052;2023-05-15T01:49:36;7.15;;;6.45;;
14272;SDS011;7220;49.450;11.052;2023-05-15T01:53:38;7.88;;;7.03;;
14272;SDS011;7220;49.450;11.052;2023-05-15T01:57:41;7.82;;;7.10;;
14272;SDS011;7220;49.450;11.052;2023-05-15T02:01:42;9.73;;;7.53;;
14272;SDS011;7220;49.450;11.052;2023-05-15T02:05:45;9.32;;;8.13;;
14272;SDS011;7220;49.450;11.052;2023-05-15T02:09:46;8.00;;;7.20;;
14272;SDS011;7220;49.450;11.052;2023-05-15T02:13:47;10.50;;;6.85;;
14272;SDS011;7220;49.450;11.052;2023-05-15T02:17:48;8.52;;;7.72;;
14272;SDS011;7220;49.450;11.052;2023-05-15T02:21:49;13.00;;;7.97;;
14272;SDS011;7220;49.450;11.052;2023-05-15T02:25:57;9.00;;;7.93;;
14272;SDS011;7220;49.450;11.052;2023-05-15T02:30:27;9.60;;;8.32;;
14272;SDS011;7220;49.450;11.052;2023-05-15T02:34:44;9.70;;;8.45;;
14272;SDS011;7220;49.450;11.052;2023-05-15T02:39:17;10.57;;;8.30;;
14272;SDS011;7220;49.450;11.052;2023-05-15T02:43:21;9.57;;;8.68;;
14272;SDS011;7220;49.450;11.052;2023-05-15T02:47:23;9.48;;;8.57;;
14272;SDS011;7220;49.450;11.052;2023-05-15T02:51:25;9.85;;;8.90;;
14272;SDS011;7220;49.450;11.052;2023-05-15T02:55:25;8.90;;;8.00;;
14272;SDS011;7220;49.450;11.052;2023-05-15T02:59:26;11.40;;;8.35;;
14272;SDS011;7220;49.450;11.052;2023-05-15T03:03:26;9.00;;;8.15;;
14272;SDS011;7220;49.450;11.052;2023-05-15T03:07:26;9.13;;;8.23;;
14272;SDS011;7220;49.450;11.052;2023-05-15T03:11:27;9.60;;;8.70;;
14272;SDS011;7220;49.450;11.052;2023-05-15T03:15:27;9.75;;;8.75;;
14272;SDS011;7220;49.450;11.052;2023-05-15T03:19:27;9.38;;;7.85;;
14272;SDS011;7220;49.450;11.052;2023-05-15T03:23:28;8.70;;;7.80;;
14272;SDS011;7220;49.450;11.052;2023-05-15T03:27:30;10.40;;;8.93;;
14272;SDS011;7220;49.450;11.052;2023-05-15T03:31:30;9.48;;;8.32;;
14272;SDS011;7220;49.450;11.052;2023-05-15T03:35:30;10.60;;;8.77;;
14272;SDS011;7220;49.450;11.052;2023-05-15T03:39:31;8.90;;;8.00;;
14272;SDS011;7220;49.450;11.052;2023-05-15T03:43:31;10.25;;;8.00;;
14272;SDS011;7220;49.450;11.052;2023-05-15T03:47:31;8.60;;;7.77;;
14272;SDS011;7220;49.450;11.052;2023-05-15T03:51:32;8.43;;;7.60;;
14272;SDS011;7220;49.450;11.052;2023-05-15T03:55:32;8.20;;;7.40;;
14272;SDS011;7220;49.450;11.052;2023-05-15T03:59:32;8.90;;;8.10;;
14272;SDS011;7220;49.450;11.052;2023-05-15T04:03:33;8.07;;;7.28;;
14272;SDS011;7220;49.450;11.052;2023-05-15T04:07:33;9.40;;;8.40;;
14272;SDS011;7220;49.450;11.052;2023-05-15T04:11:34;9.32;;;8.43;;
14272;SDS011;7220;49.450;11.052;2023-05-15T04:15:35;9.68;;;8.15;;
14272;SDS011;7220;49.450;11.052;2023-05-15T04:19:36;9.10;;;8.20;;
14272;SDS011;7220;49.450;11.052;2023-05-15T04:23:36;8.73;;;7.83;;
14272;SDS011;7220;49.450;11.052;2023-05-15T04:27:36;8.95;;;8.05;;
14272;SDS011;7220;49.450;11.052;2023-05-15T04:31:37;9.18;;;8.20;;
14272;SDS011;7220;49.450;11.052;2023-05-15T04:35:37;9.33;;;8.10;;
14272;SDS011;7220;49.450;11.052;2023-05-15T04:39:38;8.77;;;7.88;;
14272;SDS011;7220;49.450;11.052;2023-05-15T04:43:39;9.77;;;8.77;;
14272;SDS011;7220;49.450;11.052;2023-05-15T04:47:39;8.77;;;7.90;;
14272;SDS011;7220;49.450;11.052;2023-05-15T04:51:39;10.52;;;8.40;;
14272;SDS011;7220;49.450;11.052;2023-05-15T04:55:40;8.95;;;8.07;;
14272;SDS011;7220;49.450;11.052;2023-05-15T04:59:41;9.02;;;8.13;;
14272;SDS011;7220;49.450;11.052;2023-05-15T05:03:41;9.05;;;8.15;;
14272;SDS011;7220;49.450;11.052;2023-05-15T05:07:42;9.60;;;8.32;;
14272;SDS011;7220;49.450;11.052;2023-05-15T05:11:45;9.20;;;8.30;;
14272;SDS011;7220;49.450;11.052;2023-05-15T05:15:45;9.13;;;8.27;;
14272;SDS011;7220;49.450;11.052;2023-05-15T05:19:45;9.57;;;8.57;;
14272;SDS011;7220;49.450;11.052;2023-05-15T05:23:46;11.40;;;8.23;;
14272;SDS011;7220;49.450;11.052;2023-05-15T05:27:46;8.83;;;8.03;;
14272;SDS011;7220;49.450;11.052;2023-05-15T05:31:46;9.93;;;8.80;;
14272;SDS011;7220;49.450;11.052;2023-05-15T05:35:46;11.13;;;10.03;;
14272;SDS011;7220;49.450;11.052;2023-05-15T05:39:47;12.02;;;10.48;;
14272;SDS011;7220;49.450;11.052;2023-05-15T05:43:47;11.67;;;10.47;;
14272;SDS011;7220;49.450;11.052;2023-05-15T05:47:47;11.57;;;10.37;;
14272;SDS011;7220;49.450;11.052;2023-05-15T05:51:48;11.35;;;10.15;;
14272;SDS011;7220;49.450;11.052;2023-05-15T05:55:48;12.57;;;10.07;;
14272;SDS011;7220;49.450;11.052;2023-05-15T05:59:48;12.10;;;10.90;;
14272;SDS011;7220;49.450;11.052;2023-05-15T06:03:49;12.60;;;11.32;;
14272;SDS011;7220;49.450;11.052;2023-05-15T06:07:49;12.65;;;11.20;;
14272;SDS011;7220;49.450;11.052;2023-05-15T06:11:51;13.63;;;12.32;;
14272;SDS011;7220;49.450;11.052;2023-05-15T06:15:51;13.67;;;11.63;;
14272;SDS011;7220;49.450;11.052;2023-05-15T06:19:52;14.63;;;11.73;;
14272;SDS011;7220;49.450;11.052;2023-05-15T06:23:53;11.15;;;10.05;;
14272;SDS011;7220;49.450;11.052;2023-05-15T06:27:53;11.48;;;10.38;;
14272;SDS011;7220;49.450;11.052;2023-05-15T06:31:54;12.20;;;10.68;;
14272;SDS011;7220;49.450;11.052;2023-05-15T06:35:55;12.63;;;9.90;;
14272;SDS011;7220;49.450;11.052;2023-05-15T06:39:55;10.90;;;9.80;;
14272;SDS011;7220;49.450;11.052;2023-05-15T06:43:55;10.13;;;9.05;;
14272;SDS011;7220;49.450;11.052;2023-05-15T06:47:56;10.83;;;8.83;;
14272;SDS011;7220;49.450;11.052;2023-05-15T06:51:56;9.63;;;8.63;;
14272;SDS011;7220;49.450;11.052;2023-05-15T06:55:56;9.70;;;8.75;;
14272;SDS011;7220;49.450;11.052;2023-05-15T06:59:57;9.57;;;8.48;;
14272;SDS011;7220;49.450;11.052;2023-05-15T07:03:57;9.87;;;8.70;;
14272;SDS011;7220;49.450;11.052;2023-05-15T07:07:57;9.65;;;8.73;;
14272;SDS011;7220;49.450;11.052;2023-05-15T07:11:57;9.13;;;8.23;;
14272;SDS011;7220;49.450;11.052;2023-05-15T07:15:58;9.43;;;8.53;;
14272;SDS011;7220;49.450;11.052;2023-05-15T07:19:58;8.70;;;7.80;;
14272;SDS011;7220;49.450;11.052;2023-05-15T07:23:58;8.90;;;7.50;;
14272;SDS011;7220;49.450;11.052;2023-05-15T07:27:59;9.10;;;8.25;;
14272;SDS011;7220;49.450;11.052;2023-05-15T07:31:59;8.73;;;7.63;;
14272;SDS011;7220;49.450;11.052;2023-05-15T07:36:00;8.30;;;7.45;;
14272;SDS011;7220;49.450;11.052;2023-05-15T07:40:00;8.13;;;7.13;;
14272;SDS011;7220;49.450;11.052;2023-05-15T07:44:00;7.82;;;6.63;;
14272;SDS011;7220;49.450;11.052;2023-05-15T07:48:11;7.75;;;6.97;;
14272;SDS011;7220;49.450;11.052;2023-05-15T07:52:16;7.35;;;6.65;;
14272;SDS011;7220;49.450;11.052;2023-05-15T07:56:16;7.40;;;6.70;;
14272;SDS011;7220;49.450;11.052;2023-05-15T08:00:17;8.05;;;7.25;;
14272;SDS011;7220;49.450;11.052;2023-05-15T08:04:17;7.78;;;7.07;;
14272;SDS011;7220;49.450;11.052;2023-05-15T08:08:18;7.28;;;6.53;;
14272;SDS011;7220;49.450;11.052;2023-05-15T08:12:19;7.77;;;6.97;;
14272;SDS011;7220;49.450;11.052;2023-05-15T08:16:20;7.32;;;6.55;;
14272;SDS011;7220;49.450;11.052;2023-05-15T08:20:20;7.07;;;6.47;;
14272;SDS011;7220;49.450;11.052;2023-05-15T08:24:20;7.17;;;6.47;;
14272;SDS011;7220;49.450;11.052;2023-05-15T08:28:21;7.78;;;7.00;;
14272;SDS011;7220;49.450;11.052;2023-05-15T08:32:21;7.27;;;6.57;;
14272;SDS011;7220;49.450;11.052;2023-05-15T08:36:21;7.23;;;6.63;;
14272;SDS011;7220;49.450;11.052;2023-05-15T08:40:22;8.65;;;7.13;;
14272;SDS011;7220;49.450;11.052;2023-05-15T08:44:22;9.10;;;7.05;;
14272;SDS011;7220;49.450;11.052;2023-05-15T08:48:23;7.03;;;6.35;;
14272;SDS011;7220;49.450;11.052;2023-05-15T08:52:26;8.93;;;6.05;;
14272;SDS011;7220;49.450;11.052;2023-05-15T08:56:27;7.90;;;5.80;;
14272;SDS011;7220;49.450;11.052;2023-05-15T09:00:27;7.53;;;5.85;;
14272;SDS011;7220;49.450;11.052;2023-05-15T09:04:29;7.47;;;6.15;;
14272;SDS011;7220;49.450;11.052;2023-05-15T09:08:29;6.40;;;5.40;;
14272;SDS011;7220;49.450;11.052;2023-05-15T09:12:31;6.03;;;5.43;;
14272;SDS011;7220;49.450;11.052;2023-05-15T09:16:33;6.05;;;5.55;;
14272;SDS011;7220;49.450;11.052;2023-05-15T09:20:37;7.32;;;5.50;;
14272;SDS011;7220;49.450;11.052;2023-05-15T09:24:37;5.70;;;5.20;;
14272;SDS011;7220;49.450;11.052;2023-05-15T09:28:37;6.03;;;5.53;;
14272;SDS011;7220;49.450;11.052;2023-05-15T09:32:38;6.47;;;4.88;;
14272;SDS011;7220;49.450;11.052;2023-05-15T09:36:42;7.55;;;5.63;;
14272;SDS011;7220;49.450;11.052;2023-05-15T09:40:43;4.57;;;4.18;;
14272;SDS011;7220;49.450;11.052;2023-05-15T09:44:44;5.40;;;4.93;;
14272;SDS011;7220;49.450;11.052;2023-05-15T09:48:45;5.95;;;5.35;;
14272;SDS011;7220;49.450;11.052;2023-05-15T09:52:45;5.43;;;4.97;;
14272;SDS011;7220;49.450;11.052;2023-05-15T09:56:46;9.25;;;5.07;;
14272;SDS011;7220;49.450;11.052;2023-05-15T10:00:46;7.60;;;5.10;;
14272;SDS011;7220;49.450;11.052;2023-05-15T10:04:52;5.38;;;4.32;;
14272;SDS011;7220;49.450;11.052;2023-05-15T10:08:53;3.60;;;3.30;;
14272;SDS011;7220;49.450;11.052;2023-05-15T10:12:55;3.15;;;2.83;;
14272;SDS011;7220;49.450;11.052;2023-05-15T10:17:03;2.92;;;2.38;;
14272;SDS011;7220;49.450;11.052;2023-05-15T10:21:04;3.97;;;2.13;;
14272;SDS011;7220;49.450;11.052;2023-05-15T10:25:08;2.28;;;2.05;;
14272;SDS011;7220;49.450;11.052;2023-05-15T10:29:16;2.70;;;2.50;;
14272;SDS011;7220;49.450;11.052;2023-05-15T10:33:17;2.38;;;2.20;;
14272;SDS011;7220;49.450;11.052;2023-05-15T10:37:18;3.65;;;3.33;;
14272;SDS011;7220;49.450;11.052;2023-05-15T10:41:20;4.38;;;3.97;;
14272;SDS011;7220;49.450;11.052;2023-05-15T10:45:20;4.55;;;3.58;;
14272;SDS011;7220;49.450;11.052;2023-05-15T10:49:21;4.28;;;3.40;;
14272;SDS011;7220;49.450;11.052;2023-05-15T10:53:21;5.25;;;3.47;;
14272;SDS011;7220;49.450;11.052;2023-05-15T10:57:22;3.10;;;2.90;;
14272;SDS011;7220;49.450;11.052;2023-05-15T11:01:26;3.15;;;2.90;;
14272;SDS011;7220;49.450;11.052;2023-05-15T11:05:27;3.50;;;3.20;;
14272;SDS011;7220;49.450;11.052;2023-05-15T11:09:33;4.40;;;3.10;;
14272;SDS011;7220;49.450;11.052;2023-05-15T11:18:13;3.80;;;3.30;;
14272;SDS011;7220;49.450;11.052;2023-05-15T11:22:15;5.18;;;4.10;;
14272;SDS011;7220;49.450;11.052;2023-05-15T11:26:30;7.63;;;4.28;;
14272;SDS011;7220;49.450;11.052;2023-05-15T11:30:35;10.35;;;4.80;;
14272;SDS011;7220;49.450;11.052;2023-05-15T11:34:40;7.53;;;4.60;;
14272;SDS011;7220;49.450;11.052;2023-05-15T11:38:40;5.32;;;4.82;;
14272;SDS011;7220;49.450;11.052;2023-05-15T11:42:40;5.65;;;4.93;;
14272;SDS011;7220;49.450;11.052;2023-05-15T11:46:57;6.15;;;4.18;;
14272;SDS011;7220;49.450;11.052;2023-05-15T11:50:57;7.17;;;4.63;;
14272;SDS011;7220;49.450;11.052;2023-05-15T11:54:59;6.50;;;3.95;;
14272;SDS011;7220;49.450;11.052;2023-05-15T11:59:00;8.65;;;3.42;;
14272;SDS011;7220;49.450;11.052;2023-05-15T12:03:01;4.53;;;3.55;;
14272;SDS011;7220;49.450;11.052;2023-05-15T12:07:02;3.30;;;3.00;;
14272;SDS011;7220;49.450;11.052;2023-05-15T12:11:04;5.18;;;3.60;;
14272;SDS011;7220;49.450;11.052;2023-05-15T12:15:07;3.58;;;3.28;;
14272;SDS011;7220;49.450;11.052;2023-05-15T12:19:08;4.40;;;3.47;;
14272;SDS011;7220;49.450;11.052;2023-05-15T12:23:09;4.25;;;3.70;;
14272;SDS011;7220;49.450;11.052;2023-05-15T12:27:10;8.80;;;3.90;;
14272;SDS011;7220;49.450;11.052;2023-05-15T12:31:11;8.73;;;4.30;;
14272;SDS011;7220;49.450;11.052;2023-05-15T12:35:12;4.78;;;4.03;;
14272;SDS011;7220;49.450;11.052;2023-05-15T12:39:12;11.35;;;6.15;;
14272;SDS011;7220;49.450;11.052;2023-05-15T12:43:13;13.73;;;8.02;;
14272;SDS011;7220;49.450;11.052;2023-05-15T12:47:13;10.23;;;6.32;;
14272;SDS011;7220;49.450;11.052;2023-05-15T12:51:15;9.20;;;6.97;;
14272;SDS011;7220;49.450;11.052;2023-05-15T12:55:17;9.35;;;6.65;;
14272;SDS011;7220;49.450;11.052;2023-05-15T12:59:22;9.93;;;6.65;;
14272;SDS011;7220;49.450;11.052;2023-05-15T13:03:23;6.63;;;6.03;;
14272;SDS011;7220;49.450;11.052;2023-05-15T13:07:23;8.30;;;5.95;;
14272;SDS011;7220;49.450;11.052;2023-05-15T13:11:27;9.07;;;6.05;;
14272;SDS011;7220;49.450;11.052;2023-05-15T13:15:34;8.48;;;6.07;;
14272;SDS011;7220;49.450;11.052;2023-05-15T13:19:36;6.88;;;5.90;;
14272;SDS011;7220;49.450;11.052;2023-05-15T13:23:37;5.87;;;4.97;;
14272;SDS011;7220;49.450;11.052;2023-05-15T13:27:37;7.13;;;5.37;;
14272;SDS011;7220;49.450;11.052;2023-05-15T13:31:37;5.23;;;4.20;;
14272;SDS011;7220;49.450;11.052;2023-05-15T13:35:38;5.15;;;4.65;;
14272;SDS011;7220;49.450;11.052;2023-05-15T13:39:39;8.05;;;4.47;;
14272;SDS011;7220;49.450;11.052;2023-05-15T13:43:39;5.63;;;4.37;;
14272;SDS011;7220;49.450;11.052;2023-05-15T13:47:39;5.95;;;4.63;;
14272;SDS011;7220;49.450;11.052;2023-05-15T13:51:40;18.65;;;5.30;;
14272;SDS011;7220;49.450;11.052;2023-05-15T13:55:40;4.33;;;3.97;;
14272;SDS011;7220;49.450;11.052;2023-05-15T13:59:41;6.95;;;4.95;;
14272;SDS011;7220;49.450;11.052;2023-05-15T14:03:41;8.33;;;4.47;;
14272;SDS011;7220;49.450;11.052;2023-05-15T14:07:42;8.90;;;4.28;;
14272;SDS011;7220;49.450;11.052;2023-05-15T14:11:42;7.03;;;3.97;;
14272;SDS011;7220;49.450;11.052;2023-05-15T14:15:42;7.60;;;3.80;;
14272;SDS011;7220;49.450;11.052;2023-05-15T14:19:43;7.55;;;4.40;;
14272;SDS011;7220;49.450;11.052;2023-05-15T14:23:43;5.95;;;3.75;;
14272;SDS011;7220;49.450;11.052;2023-05-15T14:27:43;4.63;;;4.10;;
14272;SDS011;7220;49.450;11.052;2023-05-15T14:31:44;5.72;;;4.07;;
14272;SDS011;7220;49.450;11.052;2023-05-15T14:35:45;4.57;;;4.10;;
14272;SDS011;7220;49.450;11.052;2023-05-15T14:39:45;8.87;;;4.13;;
14272;SDS011;7220;49.450;11.052;2023-05-15T14:43:45;4.83;;;4.40;;
14272;SDS011;7220;49.450;11.052;2023-05-15T14:47:46;5.63;;;4.47;;
14272;SDS011;7220;49.450;11.052;2023-05-15T14:51:46;7.50;;;4.23;;
14272;SDS011;7220;49.450;11.052;2023-05-15T14:55:47;6.38;;;4.05;;
14272;SDS011;7220;49.450;11.052;2023-05-15T14:59:47;4.60;;;4.20;;
14272;SDS011;7220;49.450;11.052;2023-05-15T15:03:47;13.47;;;4.80;;
14272;SDS011;7220;49.450;11.052;2023-05-15T15:08:02;4.55;;;4.10;;
14272;SDS011;7220;49.450;11.052;2023-05-15T15:12:04;7.55;;;4.20;;
14272;SDS011;7220;49.450;11.052;2023-05-15T15:16:05;5.70;;;4.47;;
14272;SDS011;7220;49.450;11.052;2023-05-15T15:20:07;8.15;;;4.45;;
14272;SDS011;7220;49.450;11.052;2023-05-15T15:24:07;6.00;;;4.00;;
14272;SDS011;7220;49.450;11.052;2023-05-15T15:28:08;4.00;;;3.70;;
14272;SDS011;7220;49.450;11.052;2023-05-15T15:32:08;3.97;;;3.53;;
14272;SDS011;7220;49.450;11.052;2023-05-15T15:36:08;17.43;;;4.57;;
14272;SDS011;7220;49.450;11.052;2023-05-15T15:40:08;9.10;;;4.07;;
14272;SDS011;7220;49.450;11.052;2023-05-15T15:44:10;4.30;;;3.70;;
14272;SDS011;7220;49.450;11.052;2023-05-15T15:48:11;7.17;;;3.80;;
14272;SDS011;7220;49.450;11.052;2023-05-15T15:52:11;9.00;;;3.83;;
14272;SDS011;7220;49.450;11.052;2023-05-15T15:56:12;4.20;;;3.80;;
14272;SDS011;7220;49.450;11.052;2023-05-15T16:00:12;5.90;;;4.10;;
14272;SDS011;7220;49.450;11.052;2023-05-15T16:04:13;5.38;;;3.78;;
14272;SDS011;7220;49.450;11.052;2023-05-15T16:08:13;7.50;;;4.25;;
14272;SDS011;7220;49.450;11.052;2023-05-15T16:12:13;4.07;;;3.70;;
14272;SDS011;7220;49.450;11.052;2023-05-15T16:16:14;4.03;;;3.72;;
14272;SDS011;7220;49.450;11.052;2023-05-15T16:20:14;8.00;;;4.50;;
14272;SDS011;7220;49.450;11.052;2023-05-15T16:24:14;4.93;;;4.35;;
14272;SDS011;7220;49.450;11.052;2023-05-15T16:28:15;5.43;;;4.55;;
14272;SDS011;7220;49.450;11.052;2023-05-15T16:32:15;5.93;;;4.30;;
14272;SDS011;7220;49.450;11.052;2023-05-15T16:36:16;5.15;;;4.30;;
14272;SDS011;7220;49.450;11.052;2023-05-15T16:40:16;4.95;;;4.55;;
14272;SDS011;7220;49.450;11.052;2023-05-15T16:44:16;4.50;;;4.10;;
14272;SDS011;7220;49.450;11.052;2023-05-15T16:48:17;6.25;;;4.80;;
14272;SDS011;7220;49.450;11.052;2023-05-15T16:52:17;5.07;;;4.57;;
14272;SDS011;7220;49.450;11.052;2023-05-15T16:56:17;4.97;;;4.22;;
14272;SDS011;7220;49.450;11.052;2023-05-15T17:00:18;6.07;;;4.57;;
14272;SDS011;7220;49.450;11.052;2023-05-15T17:04:19;4.53;;;4.13;;
14272;SDS011;7220;49.450;11.052;2023-05-15T17:08:20;4.93;;;4.43;;
14272;SDS011;7220;49.450;11.052;2023-05-15T17:12:21;4.37;;;4.00;;
14272;SDS011;7220;49.450;11.052;2023-05-15T17:16:22;6.20;;;4.78;;
14272;SDS011;7220;49.450;11.052;2023-05-15T17:20:22;4.63;;;4.18;;
14272;SDS011;7220;49.450;11.052;2023-05-15T17:24:23;3.88;;;3.58;;
14272;SDS011;7220;49.450;11.052;2023-05-15T17:28:23;5.13;;;3.97;;
14272;SDS011;7220;49.450;11.052;2023-05-15T17:32:23;4.20;;;3.90;;
14272;SDS011;7220;49.450;11.052;2023-05-15T17:36:23;5.97;;;4.30;;
14272;SDS011;7220;49.450;11.052;2023-05-15T17:40:24;6.40;;;4.27;;
14272;SDS011;7220;49.450;11.052;2023-05-15T17:44:24;4.73;;;4.30;;
14272;SDS011;7220;49.450;11.052;2023-05-15T17:48:28;3.75;;;3.45;;
14272;SDS011;7220;49.450;11.052;2023-05-15T17:52:29;3.97;;;3.67;;
14272;SDS011;7220;49.450;11.052;2023-05-15T17:56:29;5.37;;;3.97;;
14272;SDS011;7220;49.450;11.052;2023-05-15T18:00:29;4.65;;;4.22;;
14272;SDS011;7220;49.450;11.052;2023-05-15T18:04:30;6.13;;;4.50;;
14272;SDS011;7220;49.450;11.052;2023-05-15T18:08:30;4.72;;;4.30;;
14272;SDS011;7220;49.450;11.052;2023-05-15T18:12:30;4.82;;;4.35;;
14272;SDS011;7220;49.450;11.052;2023-05-15T18:16:30;5.50;;;4.07;;
14272;SDS011;7220;49.450;11.052;2023-05-15T18:20:31;4.30;;;3.80;;
14272;SDS011;7220;49.450;11.052;2023-05-15T18:24:31;3.80;;;3.50;;
14272;SDS011;7220;49.450;11.052;2023-05-15T18:28:32;4.60;;;3.13;;
14272;SDS011;7220;49.450;11.052;2023-05-15T18:32:33;3.30;;;3.10;;
14272;SDS011;7220;49.450;11.052;2023-05-15T18:36:33;3.67;;;3.38;;
14272;SDS011;7220;49.450;11.052;2023-05-15T18:40:33;4.03;;;3.63;;
14272;SDS011;7220;49.450;11.052;2023-05-15T18:44:34;4.97;;;3.10;;
14272;SDS011;7220;49.450;11.052;2023-05-15T18:48:34;4.10;;;3.20;;
14272;SDS011;7220;49.450;11.052;2023-05-15T18:52:35;4.63;;;3.30;;
14272;SDS011;7220;49.450;11.052;2023-05-15T18:56:35;4.20;;;3.47;;
14272;SDS011;7220;49.450;11.052;2023-05-15T19:00:35;3.70;;;3.40;;
14272;SDS011;7220;49.450;11.052;2023-05-15T19:04:35;3.40;;;3.17;;
14272;SDS011;7220;49.450;11.052;2023-05-15T19:08:36;3.28;;;2.97;;
14272;SDS011;7220;49.450;11.052;2023-05-15T19:12:36;4.60;;;3.50;;
14272;SDS011;7220;49.450;11.052;2023-05-15T19:16:36;3.00;;;2.70;;
14272;SDS011;7220;49.450;11.052;2023-05-15T19:20:37;2.70;;;2.45;;
14272;SDS011;7220;49.450;11.052;2023-05-15T19:24:37;4.43;;;2.80;;
14272;SDS011;7220;49.450;11.052;2023-05-15T19:28:37;3.38;;;2.95;;
14272;SDS011;7220;49.450;11.052;2023-05-15T19:32:38;3.83;;;3.53;;
14272;SDS011;7220;49.450;11.052;2023-05-15T19:36:38;3.00;;;2.80;;
14272;SDS011;7220;49.450;11.052;2023-05-15T19:40:39;3.10;;;2.80;;
14272;SDS011;7220;49.450;11.052;2023-05-15T19:44:42;3.25;;;2.95;;
14272;SDS011;7220;49.450;11.052;2023-05-15T19:48:43;3.65;;;3.35;;
14272;SDS011;7220;49.450;11.052;2023-05-15T19:52:43;4.28;;;3.88;;
14272;SDS011;7220;49.450;11.052;2023-05-15T19:56:44;4.55;;;3.83;;
14272;SDS011;7220;49.450;11.052;2023-05-15T20:00:44;4.60;;;4.20;;
14272;SDS011;7220;49.450;11.052;2023-05-15T20:04:46;6.30;;;4.43;;
14272;SDS011;7220;49.450;11.052;2023-05-15T20:08:47;4.87;;;4.37;;
14272;SDS011;7220;49.450;11.052;2023-05-15T20:12:48;4.88;;;4.35;;
14272;SDS011;7220;49.450;11.052;2023-05-15T20:16:48;5.40;;;4.90;;
14272;SDS011;7220;49.450;11.052;2023-05-15T20:20:48;4.95;;;4.32;;
14272;SDS011;7220;49.450;11.052;2023-05-15T20:24:50;6.00;;;4.65;;
14272;SDS011;7220;49.450;11.052;2023-05-15T20:28:51;5.45;;;4.88;;
14272;SDS011;7220;49.450;11.052;2023-05-15T20:32:51;5.75;;;5.15;;
14272;SDS011;7220;49.450;11.052;2023-05-15T20:36:51;5.40;;;4.93;;
14272;SDS011;7220;49.450;11.052;2023-05-15T20:40:53;5.00;;;4.50;;
14272;SDS011;7220;49.450;11.052;2023-05-15T20:44:53;4.47;;;4.07;;
14272;SDS011;7220;49.450;11.052;2023-05-15T20:48:54;5.80;;;5.30;;
14272;SDS011;7220;49.450;11.052;2023-05-15T20:52:54;4.57;;;4.18;;
14272;SDS011;7220;49.450;11.052;2023-05-15T20:56:55;6.57;;;4.55;;
14272;SDS011;7220;49.450;11.052;2023-05-15T21:00:55;5.47;;;4.97;;
14272;SDS011;7220;49.450;11.052;2023-05-15T21:04:57;5.97;;;4.88;;
14272;SDS011;7220;49.450;11.052;2023-05-15T21:08:57;5.97;;;5.40;;
14272;SDS011;7220;49.450;11.052;2023-05-15T21:12:57;6.07;;;4.93;;
14272;SDS011;7220;49.450;11.052;2023-05-15T21:16:58;5.40;;;4.95;;
14272;SDS011;7220;49.450;11.052;2023-05-15T21:20:58;6.20;;;5.37;;
14272;SDS011;7220;49.450;11.052;2023-05-15T21:24:59;5.80;;;5.30;;
14272;SDS011;7220;49.450;11.052;2023-05-15T21:29:00;6.18;;;5.57;;
14272;SDS011;7220;49.450;11.052;2023-05-15T21:33:00;6.20;;;5.60;;
14272;SDS011;7220;49.450;11.052;2023-05-15T21:37:00;7.07;;;6.38;;
14272;SDS011;7220;49.450;11.052;2023-05-15T21:41:01;7.03;;;6.15;;
14272;SDS011;7220;49.450;11.052;2023-05-15T21:45:01;6.83;;;6.20;;
14272;SDS011;7220;49.450;11.052;2023-05-15T21:49:01;6.88;;;6.15;;
14272;SDS011;7220;49.450;11.052;2023-05-15T21:53:02;7.45;;;6.80;;
14272;SDS011;7220;49.450;11.052;2023-05-15T21:57:03;7.43;;;6.72;;
14272;SDS011;7220;49.450;11.052;2023-05-15T22:01:03;8.13;;;7.32;;
14272;SDS011;7220;49.450;11.052;2023-05-15T22:05:04;7.45;;;6.85;;
14272;SDS011;7220;49.450;11.052;2023-05-15T22:09:05;8.23;;;6.90;;
14272;SDS011;7220;49.450;11.052;2023-05-15T22:13:05;8.25;;;7.40;;
14272;SDS011;7220;49.450;11.052;2023-05-15T22:17:05;7.35;;;6.65;;
14272;SDS011;7220;49.450;11.052;2023-05-15T22:21:06;7.65;;;6.40;;
14272;SDS011;7220;49.450;11.052;2023-05-15T22:25:06;6.40;;;5.87;;
14272;SDS011;7220;49.450;11.052;2023-05-15T22:29:07;9.65;;;6.18;;
14272;SDS011;7220;49.450;11.052;2023-05-15T22:33:07;7.07;;;6.40;;
14272;SDS011;7220;49.450;11.052;2023-05-15T22:37:08;7.73;;;6.57;;
14272;SDS011;7220;49.450;11.052;2023-05-15T22:41:09;6.78;;;6.18;;
14272;SDS011;7220;49.450;11.052;2023-05-15T22:45:09;6.77;;;6.17;;
14272;SDS011;7220;49.450;11.052;2023-05-15T22:49:10;7.07;;;6.47;;
14272;SDS011;7220;49.450;11.052;2023-05-15T22:53:23;7.18;;;6.47;;
14272;SDS011;7220;49.450;11.052;2023-05-15T22:57:24;6.25;;;5.75;;
14272;SDS011;7220;49.450;11.052;2023-05-15T23:01:25;6.80;;;6.30;;
14272;SDS011;7220;49.450;11.052;2023-05-15T23:05:27;7.45;;;6.75;;
14272;SDS011;7220;49.450;11.052;2023-05-15T23:09:27;8.68;;;7.78;;
14272;SDS011;7220;49.450;11.052;2023-05-15T23:13:28;7.13;;;6.53;;
14272;SDS011;7220;49.450;11.052;2023-05-15T23:17:28;7.47;;;6.78;;
14272;SDS011;7220;49.450;11.052;2023-05-15T23:21:28;6.72;;;6.20;;
14272;SDS011;7220;49.450;11.052;2023-05-15T23:25:29;7.80;;;7.17;;
14272;SDS011;7220;49.450;11.052;2023-05-15T23:29:30;7.60;;;6.90;;
14272;SDS011;7220;49.450;11.052;2023-05-15T23:33:32;7.10;;;6.45;;
14272;SDS011;7220;49.450;11.052;2023-05-15T23:37:33;7.70;;;7.00;;
14272;SDS011;7220;49.450;11.052;2023-05-15T23:41:33;8.02;;;7.38;;
14272;SDS011;7220;49.450;11.052;2023-05-15T23:45:34;7.75;;;7.07;;
14272;SDS011;7220;49.450;11.052;2023-05-15T23:49:34;8.65;;;7.78;;
14272;SDS011;7220;49.450;11.052;2023-05-15T23:53:34;8.93;;;7.35;;
14272;SDS011;7220;49.450;11.052;2023-05-15T23:57:35;8.88;;;7.97;;
